Date,TemperatureHighF,TemperatureAvgF,TemperatureLowF,DewpointHighF,DewpointAvgF,DewpointLowF,HumidityHigh,HumidityAvg,HumidityLow,PressureMaxIn,PressureMinIn,WindSpeedMaxMPH,WindSpeedAvgMPH,GustSpeedMaxMPH,PrecipitationSumIn
2013-1-1,28.4,22.8,13.3,22.0,16.1,4.1,88,75,61,30.09,29.97,10,2,10,0.00
2013-1-2,25.0,16.5,9.0,12.8,6.4,2.0,77,64,46,30.14,30.05,10,1,10,0.00
2013-1-3,30.0,24.4,16.1,24.0,17.2,7.4,85,74,64,30.16,30.01,9,2,12,0.00
2013-1-4,33.1,23.1,13.5,22.2,16.5,8.5,83,76,57,30.17,30.06,12,3,17,0.00
2013-1-5,34.1,28.3,18.9,31.9,24.3,15.7,100,85,68,30.16,29.90,13,2,13,0.01
2013-1-6,34.7,29.8,23.2,32.3,24.5,19.2,91,80,72,30.24,29.82,12,2,14,0.00
2013-1-7,36.3,26.6,16.7,25.3,20.6,14.8,92,79,52,30.27,30.05,12,2,15,0.01
2013-1-8,39.5,31.9,25.7,30.1,26.1,22.2,88,79,66,30.11,29.97,10,1,10,0.00
2013-1-9,49.6,39.6,26.1,34.5,26.2,15.6,86,61,29,30.40,29.95,14,3,15,0.00
2013-1-10,39.5,32.8,22.7,38.8,27.2,18.8,99,81,62,30.41,29.83,11,2,12,0.68
2013-1-11,52.0,48.8,39.1,52.0,47.6,38.6,100,95,87,29.83,29.59,14,2,15,0.42
2013-1-12,55.6,47.4,34.3,48.9,41.8,31.5,95,81,59,29.84,29.66,13,3,14,0.20
2013-1-13,34.9,27.4,13.8,34.4,25.4,8.2,98,92,77,30.15,29.73,9,2,12,0.08
2013-1-14,23.5,16.4,12.8,16.1,10.9,7.3,89,79,65,30.37,30.15,6,0,6,0.00
2013-1-15,29.5,20.5,11.6,20.6,15.1,9.0,92,80,55,30.35,30.02,4,0,4,0.00
2013-1-16,35.2,27.1,15.7,26.0,19.9,13.3,92,75,53,30.03,29.77,15,2,17,0.00
2013-1-17,32.9,27.5,17.8,29.4,16.6,9.0,87,64,45,30.31,29.94,12,2,16,0.00
2013-1-18,38.6,29.0,17.0,27.1,19.7,8.9,84,68,55,30.34,29.87,16,3,21,0.00
2013-1-19,47.6,40.7,33.8,35.5,29.7,16.8,72,65,44,29.87,29.65,19,5,22,0.00
2013-1-20,33.8,19.5,14.6,17.0,4.3,0.3,61,51,41,30.18,29.74,15,3,22,0.00
2013-1-21,15.9,10.2,4.1,6.4,-2.0,-8.9,80,58,43,30.18,30.03,11,2,14,0.00
2013-1-22,11.6,6.2,0.3,-2.5,-6.5,-9.1,65,55,44,30.30,30.18,10,1,11,0.00
2013-1-23,19.9,15.1,9.2,13.8,3.6,-3.2,84,60,50,30.25,30.01,12,2,15,0.00
2013-1-24,18.0,16.0,14.0,13.0,8.0,4.2,88,71,58,30.53,30.17,11,1,12,0.03
2013-1-25,26.6,21.4,16.7,19.5,14.0,8.3,87,73,56,30.29,29.89,10,2,11,0.00
2013-1-26,27.8,21.7,16.1,16.7,13.5,9.6,85,71,56,30.33,30.04,9,1,11,0.03
2013-1-27,34.4,26.1,20.5,33.6,20.7,15.0,97,80,72,30.30,29.86,14,2,14,0.00
2013-1-28,49.2,43.6,34.4,49.2,43.5,33.6,100,100,97,29.86,29.74,10,1,13,0.15
2013-1-29,58.4,55.3,42.8,57.8,55.0,42.8,100,99,92,29.77,29.26,14,3,16,0.91
2013-1-30,52.9,37.9,22.7,52.9,36.4,16.8,100,94,77,29.49,29.06,14,3,19,0.30
2013-1-31,22.7,15.1,6.0,17.5,7.6,-1.1,84,72,62,30.05,29.49,14,4,16,0.00
2013-2-1,15.9,8.8,1.3,11.7,-0.0,-5.6,83,67,55,30.29,30.05,13,2,13,0.00
2013-2-2,25.0,18.8,11.9,22.0,15.7,6.3,92,87,77,30.12,29.89,10,2,10,0.00
2013-2-3,23.8,16.2,9.2,16.5,9.1,1.7,87,74,56,29.98,29.86,11,2,11,0.00
2013-2-4,27.6,23.5,19.7,22.4,20.3,16.5,93,87,76,29.96,29.74,4,0,7,0.00
2013-2-5,30.7,26.0,15.9,28.8,23.0,13.9,95,89,71,29.97,29.70,11,1,15,0.00
2013-2-6,37.8,30.7,18.4,27.5,21.9,13.8,86,70,54,30.15,29.97,8,1,10,0.05
2013-2-7,41.3,34.0,29.1,35.0,30.4,25.7,99,87,71,30.03,29.72,10,1,10,0.28
2013-2-8,33.2,30.0,27.5,32.7,27.5,24.7,99,91,74,30.26,29.76,14,3,18,0.01
2013-2-9,37.8,31.2,27.2,27.0,24.7,21.0,91,77,63,30.30,30.01,10,1,11,0.01
2013-2-10,49.5,39.6,31.0,47.7,36.2,23.6,98,88,72,30.01,29.44,14,3,17,0.23
2013-2-11,48.6,34.3,29.4,42.4,24.8,20.5,79,68,64,29.92,29.45,22,6,23,0.00
2013-2-12,29.7,26.7,18.9,22.5,20.3,16.4,90,77,70,30.00,29.85,10,2,14,0.00
2013-2-13,45.1,31.6,17.7,31.6,25.5,15.6,95,80,55,29.86,29.62,11,1,13,0.00
2013-2-14,41.3,35.9,31.0,32.9,28.0,20.1,89,74,54,29.86,29.57,14,3,15,0.00
2013-2-15,31.2,27.5,22.9,26.2,18.0,9.1,90,68,43,30.08,29.86,12,2,13,0.01
2013-2-16,22.9,17.5,13.5,19.4,7.9,2.0,87,66,50,30.07,30.01,13,2,13,0.00
2013-2-17,29.8,20.3,10.0,13.3,5.9,0.9,71,54,32,30.12,29.97,10,1,13,0.00
2013-2-18,52.9,39.2,25.3,44.9,30.2,12.6,96,71,56,29.97,29.33,18,4,20,0.28
2013-2-19,33.7,17.4,12.8,32.7,10.8,5.3,96,75,66,30.06,29.41,18,5,20,0.01
2013-2-20,23.8,17.0,10.2,18.0,9.2,2.4,79,71,58,30.26,30.06,11,2,12,0.00
2013-2-21,26.3,25.1,22.2,21.6,19.4,17.9,91,79,73,30.26,29.91,13,2,17,0.00
2013-2-22,32.8,27.3,21.6,32.5,25.2,19.6,99,92,75,29.92,29.73,12,3,14,0.01
2013-2-23,28.4,25.9,23.8,22.5,19.0,16.2,84,75,62,29.87,29.81,11,2,13,0.00
2013-2-24,38.8,26.7,16.4,22.6,18.4,13.5,90,72,47,30.06,29.86,6,1,6,0.18
2013-2-25,42.1,30.8,18.4,28.4,23.8,16.2,95,77,56,30.09,29.86,7,1,10,0.01
2013-2-26,33.5,32.4,31.0,32.3,28.7,23.3,98,87,66,29.84,29.36,11,1,22,0.38
2013-2-27,34.1,32.6,32.1,33.8,32.4,31.6,100,99,98,29.54,29.36,6,1,7,0.31
2013-2-28,35.5,32.5,29.7,33.9,31.2,26.7,100,95,86,29.91,29.53,13,3,13,0.25
2013-3-1,33.2,29.6,26.7,28.0,24.4,19.2,95,81,67,30.04,29.89,7,1,10,0.03
2013-3-2,29.4,26.9,25.1,24.5,20.0,16.7,89,75,68,30.05,30.00,10,2,12,0.01
2013-3-3,32.7,24.2,14.6,19.4,13.9,6.8,86,67,36,30.02,29.97,11,1,11,0.01
2013-3-4,35.6,26.4,13.6,28.3,19.6,10.9,93,77,54,30.04,29.89,6,1,6,0.00
2013-3-5,31.9,29.8,27.5,29.6,28.0,26.4,97,93,80,29.89,29.65,8,1,9,0.04
2013-3-6,32.9,30.6,27.8,30.1,27.8,25.3,95,89,85,30.18,29.81,11,2,13,0.11
2013-3-7,39.5,32.2,24.7,27.8,25.0,21.6,90,76,53,30.31,30.17,6,1,6,0.26
2013-3-8,38.9,28.8,15.4,24.4,20.8,13.5,96,74,52,30.40,30.23,5,1,7,0.00
2013-3-9,42.3,35.7,26.6,34.2,28.5,20.0,83,75,64,30.23,29.77,12,2,12,0.01
2013-3-10,53.1,45.8,37.3,48.5,41.1,32.8,96,84,68,29.77,29.54,10,1,12,0.34
2013-3-11,50.2,40.8,32.1,49.0,39.4,29.6,100,95,88,29.68,29.45,15,3,15,0.08
2013-3-12,37.3,31.4,27.5,30.6,25.7,20.0,95,80,56,29.90,29.69,13,3,14,0.00
2013-3-13,32.9,27.1,23.3,22.1,15.7,11.3,88,63,41,30.23,29.90,14,3,15,0.01
2013-3-14,39.3,30.3,21.9,30.8,20.6,12.1,96,68,40,30.22,29.99,10,1,11,0.00
2013-3-15,46.7,36.6,29.0,40.6,33.5,27.6,99,89,64,29.99,29.60,6,1,6,0.15
2013-3-16,36.8,32.8,29.4,36.8,30.3,21.5,100,91,72,30.00,29.54,11,2,14,0.01
2013-3-17,36.3,31.4,28.4,23.9,21.5,19.0,77,67,56,30.09,29.91,11,2,13,0.00
2013-3-18,34.7,30.2,23.2,33.5,26.9,12.9,99,88,63,29.91,29.49,15,3,17,0.05
2013-3-19,35.0,26.0,18.4,17.0,13.1,9.8,75,58,41,29.98,29.70,18,5,19,0.00
2013-3-20,26.1,22.0,18.0,14.1,8.1,3.4,79,55,40,29.96,29.91,13,3,14,0.00
2013-3-21,33.1,23.2,14.4,15.5,10.3,4.6,77,58,41,29.94,29.89,9,2,11,0.00
2013-3-22,41.9,28.2,16.7,20.4,15.7,13.0,87,62,34,29.96,29.89,9,1,9,0.00
2013-3-23,41.1,31.0,22.1,25.7,22.0,18.6,90,71,47,30.02,29.90,7,1,10,0.00
2013-3-24,36.9,31.8,27.9,28.8,24.1,21.6,95,74,55,29.91,29.49,12,2,14,0.00
2013-3-25,36.5,32.2,27.8,29.6,27.1,24.8,95,82,66,29.93,29.53,13,3,17,0.12
2013-3-26,41.2,34.7,30.3,30.3,27.4,21.0,96,76,49,30.13,29.93,10,2,14,0.17
2013-3-27,43.2,35.3,28.1,27.9,23.4,17.2,85,64,38,30.21,30.13,8,1,9,0.00
2013-3-28,51.0,36.3,23.9,24.2,20.6,17.7,85,57,28,30.23,30.16,6,1,9,0.00
2013-3-29,53.2,39.7,26.7,29.6,20.5,15.9,83,50,27,30.20,30.10,6,1,7,0.00
2013-3-30,57.8,43.3,24.8,36.7,28.0,17.7,76,56,38,30.13,29.74,12,1,14,0.00
2013-3-31,58.9,48.8,38.5,44.3,36.3,24.7,98,65,37,29.74,29.57,13,3,18,0.01
2013-4-1,38.6,33.4,26.3,27.5,18.5,13.4,66,54,40,30.06,29.73,12,2,15,0.00
2013-4-2,43.6,32.5,23.5,17.9,12.6,7.7,66,45,25,30.19,30.05,10,1,11,0.00
2013-4-3,44.1,31.9,19.2,24.4,16.0,10.6,81,55,27,30.34,30.19,6,1,10,0.00
2013-4-4,58.4,40.4,21.0,23.1,19.4,16.6,85,48,21,30.23,29.85,9,1,12,0.00
2013-4-5,47.1,40.0,33.1,34.3,26.0,18.0,90,59,36,30.09,29.85,10,2,12,0.00
2013-4-6,69.6,52.0,31.6,42.7,31.5,23.8,76,48,27,30.06,29.52,16,3,22,0.00
2013-4-7,62.3,50.8,41.5,47.4,40.1,34.0,86,68,45,29.84,29.51,22,3,27,0.03
2013-4-8,70.3,52.6,41.9,56.6,44.5,34.4,99,75,50,29.86,29.56,20,3,25,0.19
2013-4-9,76.7,54.3,41.8,59.5,47.7,40.4,98,80,50,29.87,29.67,17,2,18,0.00
2013-4-10,50.8,42.6,39.9,50.0,42.0,39.0,99,98,89,29.83,29.68,11,1,13,0.36
2013-4-11,51.1,45.5,41.8,51.1,45.3,41.5,100,99,98,29.72,29.45,12,2,12,1.48
2013-4-12,43.9,39.0,36.2,42.3,34.9,29.4,100,85,70,29.75,29.47,15,3,16,0.05
2013-4-13,45.1,38.9,33.7,34.3,29.9,26.2,93,71,51,29.89,29.75,10,2,16,0.02
2013-4-14,67.1,50.6,37.8,49.4,40.0,30.7,83,68,51,29.90,29.62,12,2,14,0.00
2013-4-15,65.3,56.5,44.5,57.6,50.6,44.0,99,82,59,29.83,29.61,15,2,15,0.92
2013-4-16,48.8,45.0,41.1,44.4,38.0,33.3,100,78,61,30.13,29.81,7,1,8,0.37
2013-4-17,53.6,47.0,42.3,50.7,42.6,33.5,100,85,70,30.14,29.71,12,2,13,1.04
2013-4-18,69.1,57.7,43.1,65.2,56.9,40.7,100,97,85,29.69,29.34,19,3,19,1.10
2013-4-19,43.1,37.3,33.5,40.1,30.0,27.1,89,75,65,29.80,29.39,18,5,22,0.00
2013-4-20,43.9,36.1,27.8,29.5,21.9,16.0,85,58,36,30.34,29.80,10,2,12,0.01
2013-4-21,51.9,39.6,26.0,30.4,23.7,19.4,81,56,28,30.43,30.24,10,2,13,0.00
2013-4-22,65.6,50.9,33.5,37.1,33.1,28.4,89,55,27,30.24,29.94,9,1,10,0.00
2013-4-23,64.5,49.8,37.0,54.2,43.0,36.2,97,79,56,29.94,29.75,15,2,15,0.48
2013-4-24,48.8,40.1,35.5,36.2,31.8,26.5,97,74,42,30.05,29.76,13,2,13,0.02
2013-4-25,51.4,42.4,32.1,35.9,30.6,26.4,86,64,40,30.24,29.98,12,2,14,0.02
2013-4-26,66.0,49.0,29.8,43.7,36.4,27.8,93,65,40,30.27,30.15,12,2,15,0.00
2013-4-27,69.1,54.7,36.8,50.2,41.4,33.8,99,66,29,30.19,29.88,10,1,11,0.00
2013-4-28,62.7,55.1,46.8,54.9,51.5,45.7,98,88,71,29.87,29.70,7,0,7,0.10
2013-4-29,72.3,59.7,44.3,54.3,50.7,43.8,100,75,47,29.82,29.70,10,1,13,0.00
2013-4-30,83.6,67.4,56.2,58.8,54.1,49.9,85,66,33,29.85,29.72,10,1,13,0.00
2013-5-1,83.2,70.6,55.0,58.7,54.7,49.6,96,61,33,30.01,29.85,10,1,12,0.00
2013-5-2,60.1,50.2,40.1,56.0,44.7,37.9,93,82,64,30.07,29.98,12,3,12,0.00
2013-5-3,60.9,48.8,39.6,54.8,46.1,38.2,98,91,70,29.98,29.82,11,1,11,0.26
2013-5-4,73.7,62.3,52.6,55.2,48.9,42.0,98,65,34,29.90,29.81,9,1,10,0.01
2013-5-5,75.1,61.0,48.0,50.6,46.3,42.5,88,62,33,29.89,29.82,7,1,12,0.00
2013-5-6,71.6,58.9,49.8,51.5,43.1,38.0,78,57,35,29.89,29.82,6,1,7,0.00
2013-5-7,73.0,60.9,46.4,53.0,44.5,38.2,80,56,39,29.90,29.85,7,1,7,0.00
2013-5-8,77.2,64.8,50.8,57.1,48.5,42.8,90,58,34,29.90,29.84,9,1,9,0.00
2013-5-9,78.3,62.3,49.2,60.3,53.5,45.8,99,76,38,29.85,29.68,10,1,12,0.41
2013-5-10,60.5,47.6,39.9,60.2,47.3,39.6,100,99,96,29.85,29.63,9,2,12,0.01
2013-5-11,60.7,46.1,37.3,52.1,41.5,33.9,100,85,60,29.91,29.71,15,1,16,0.01
2013-5-12,52.6,44.4,36.6,34.0,29.5,26.2,84,57,38,30.00,29.89,10,1,10,0.00
2013-5-13,63.7,50.1,31.9,35.8,30.5,23.4,92,52,23,30.06,29.92,6,0,9,0.00
2013-5-14,87.6,69.6,50.2,60.0,46.6,29.1,58,45,27,29.92,29.56,12,2,16,0.00
2013-5-15,80.1,72.6,58.0,59.3,53.2,47.2,77,52,33,29.69,29.51,12,1,13,0.01
2013-5-16,83.6,67.1,51.0,54.8,47.0,39.5,96,55,24,29.83,29.68,6,0,6,0.00
2013-5-17,79.2,66.0,54.7,63.1,54.2,43.6,98,67,45,29.92,29.82,5,0,10,0.05
2013-5-18,79.4,67.1,55.1,63.8,58.4,47.1,99,75,53,29.95,29.84,7,0,8,0.00
2013-5-19,87.2,73.0,57.5,67.5,62.0,56.9,98,71,42,29.85,29.67,10,1,12,0.00
2013-5-20,87.6,78.0,69.6,68.7,63.9,54.5,94,65,33,29.70,29.61,16,2,16,0.00
2013-5-21,80.3,71.0,62.7,67.1,64.0,61.2,99,80,57,29.67,29.56,12,1,14,0.88
2013-5-22,75.4,68.4,61.6,66.2,61.8,51.5,96,80,50,29.62,29.51,10,1,13,0.10
2013-5-23,61.6,46.5,39.8,56.7,44.2,35.1,99,92,70,30.14,29.61,11,2,13,0.02
2013-5-24,53.8,46.2,39.2,41.8,36.5,30.4,92,71,46,30.30,30.14,6,1,9,0.00
2013-5-25,58.6,48.5,37.2,49.2,41.3,34.4,96,77,62,30.27,30.15,3,0,3,0.01
2013-5-26,69.4,56.3,41.9,54.2,45.8,39.2,95,71,39,30.18,30.00,9,0,9,0.02
2013-5-27,61.0,57.3,52.5,60.6,56.0,52.0,99,96,84,30.00,29.74,9,1,11,0.34
2013-5-28,79.6,69.0,60.9,69.4,65.3,60.6,100,89,65,29.78,29.65,18,1,18,0.53
2013-5-29,84.7,73.2,62.6,70.0,64.3,59.1,99,76,50,29.84,29.69,8,1,11,0.11
2013-5-30,84.5,76.0,67.3,69.2,65.5,59.5,88,71,54,29.84,29.73,15,2,19,0.08
2013-5-31,76.0,69.8,65.0,68.6,65.3,62.5,98,86,72,29.80,29.61,11,1,17,0.16
2013-6-1,76.1,68.6,60.7,68.3,62.8,59.5,98,83,65,29.67,29.56,13,2,17,0.30
2013-6-2,63.2,53.6,42.1,62.0,49.9,40.0,98,88,72,29.93,29.60,7,1,10,0.01
2013-6-3,65.6,53.6,39.5,49.0,43.4,38.6,99,71,47,29.99,29.92,5,0,6,0.00
2013-6-4,74.7,59.2,43.1,51.8,45.9,40.7,95,65,34,30.03,29.95,6,0,9,0.00
2013-6-5,78.8,66.7,54.4,55.4,50.4,45.0,85,58,34,29.97,29.77,5,0,9,0.00
2013-6-6,69.4,60.8,53.2,58.0,50.0,43.0,89,69,51,29.78,29.72,6,1,9,0.03
2013-6-7,67.9,58.9,51.7,57.1,50.1,39.0,95,74,48,29.80,29.74,6,1,7,0.00
2013-6-8,76.3,62.4,49.1,56.2,49.9,42.3,95,66,41,29.87,29.78,5,0,6,0.00
2013-6-9,82.0,70.0,55.9,64.7,56.0,48.7,95,65,33,29.88,29.69,5,0,7,0.00
2013-6-10,75.8,67.3,60.4,67.8,64.3,59.8,99,91,71,29.75,29.61,4,0,5,1.01
2013-6-11,84.5,69.7,57.2,70.8,63.3,56.9,100,83,48,29.80,29.70,7,0,12,0.24
2013-6-12,87.4,73.1,64.3,75.7,69.5,63.7,100,90,59,29.78,29.47,8,0,10,1.18
2013-6-13,68.8,62.3,55.7,64.2,57.8,52.5,100,86,61,29.91,29.47,7,1,10,0.03
2013-6-14,73.7,62.9,54.2,62.0,56.1,52.2,97,80,59,29.99,29.88,5,0,6,0.00
2013-6-15,73.7,66.5,56.2,67.2,62.7,54.5,97,88,74,29.95,29.77,4,0,6,0.08
2013-6-16,80.7,73.0,66.3,70.3,66.0,63.9,94,80,58,29.80,29.74,7,1,8,0.04
2013-6-17,85.9,75.3,63.1,68.9,60.3,52.3,99,65,33,29.81,29.71,5,0,10,0.00
2013-6-18,72.8,64.0,58.0,64.9,58.5,53.2,97,83,69,29.92,29.75,10,1,10,0.00
2013-6-19,77.6,65.4,54.7,57.8,50.8,46.5,83,61,44,30.01,29.92,5,0,6,0.00
2013-6-20,84.9,71.7,56.5,66.6,59.2,46.9,89,66,46,30.04,29.95,3,0,5,0.00
2013-6-21,85.5,71.7,63.4,71.5,65.4,61.7,98,82,50,30.05,29.79,19,1,19,1.12
2013-6-22,83.8,74.8,68.1,73.8,68.7,63.7,92,82,65,29.96,29.83,7,0,7,0.00
2013-6-23,85.9,75.0,65.6,72.3,67.3,63.5,96,78,58,29.92,29.84,9,1,13,0.00
2013-6-24,83.8,72.2,66.0,73.3,67.2,64.7,98,85,62,29.95,29.78,9,1,15,0.68
2013-6-25,87.4,76.3,67.4,76.0,70.5,65.0,96,83,62,29.84,29.67,7,0,17,0.00
2013-6-26,80.1,73.5,64.8,73.4,69.8,63.9,99,89,74,29.75,29.59,11,0,12,2.29
2013-6-27,87.8,74.9,66.4,73.9,68.4,65.5,99,82,50,29.66,29.55,7,0,9,0.00
2013-6-28,81.1,71.2,64.0,66.9,63.7,58.7,96,79,49,29.56,29.46,7,0,10,0.05
2013-6-29,72.5,65.6,62.7,66.3,63.4,61.8,98,93,77,29.60,29.44,5,1,6,0.01
2013-6-30,73.2,67.2,63.9,65.8,61.1,57.0,96,81,64,29.82,29.60,7,1,8,0.00
2013-7-1,73.9,66.9,58.0,61.8,53.8,40.4,92,64,46,29.90,29.81,6,1,8,0.00
2013-7-2,65.2,61.6,59.9,61.2,57.8,51.6,98,88,63,29.92,29.88,4,0,4,0.14
2013-7-3,72.5,65.6,60.7,68.2,63.4,59.8,100,93,80,29.97,29.87,5,0,5,0.34
2013-7-4,77.9,68.0,56.0,65.4,61.5,55.7,100,81,61,30.00,29.94,5,0,6,0.01
2013-7-5,82.8,71.6,58.3,69.4,64.2,57.8,100,79,56,29.98,29.91,5,0,7,0.00
2013-7-6,79.0,71.8,66.3,71.8,68.4,65.2,98,89,70,29.95,29.86,4,0,4,0.02
2013-7-7,85.1,75.5,66.9,72.4,68.9,64.2,98,81,51,29.91,29.85,5,0,5,0.00
2013-7-8,83.6,75.3,67.9,74.0,70.6,66.7,98,86,68,29.95,29.82,9,0,9,0.38
2013-7-9,83.0,78.1,73.2,76.7,74.6,71.6,97,89,76,29.87,29.75,6,0,7,0.18
2013-7-10,79.8,75.1,60.1,76.6,70.0,58.4,97,85,65,29.87,29.70,5,0,7,0.01
2013-7-11,77.9,66.9,58.0,64.9,58.0,52.5,99,76,42,29.97,29.88,5,0,6,0.00
2013-7-12,81.8,68.3,56.0,66.7,60.0,55.2,100,78,43,30.02,29.95,4,0,6,0.00
2013-7-13,83.8,71.3,57.5,66.7,62.5,56.5,98,76,50,30.04,29.98,6,0,6,0.00
2013-7-14,88.8,76.9,65.5,74.0,68.8,64.3,98,78,49,30.07,30.01,5,0,6,0.00
2013-7-15,91.4,80.2,71.1,78.3,73.1,70.4,99,81,56,30.13,30.07,5,0,9,0.00
2013-7-16,91.2,81.3,70.6,75.4,72.3,70.0,99,76,52,30.18,30.11,4,0,7,0.00
2013-7-17,91.6,81.5,70.9,75.8,71.7,68.4,98,74,49,30.19,30.04,4,0,5,0.00
2013-7-18,92.3,83.4,73.0,77.2,72.8,69.8,97,72,50,30.05,29.84,6,0,9,0.00
2013-7-19,94.0,84.8,75.8,75.1,72.0,65.6,91,68,41,29.84,29.64,10,1,15,0.00
2013-7-20,85.3,78.7,70.8,72.7,67.0,57.1,86,69,45,29.80,29.65,6,0,6,0.00
2013-7-21,88.0,76.7,64.7,69.8,66.0,62.2,96,72,44,29.84,29.73,6,0,7,0.00
2013-7-22,80.3,71.8,67.6,69.9,67.6,66.3,98,87,65,29.74,29.64,7,0,7,0.04
2013-7-23,78.5,69.7,62.6,69.9,61.9,49.1,95,77,61,29.82,29.57,9,1,11,0.04
2013-7-24,70.9,62.3,51.9,53.7,50.2,46.6,92,66,43,29.92,29.82,5,1,7,0.00
2013-7-25,78.8,66.2,51.9,58.5,54.5,49.9,99,69,37,29.99,29.91,4,0,6,0.00
2013-7-26,76.3,66.6,58.9,64.8,59.6,55.3,93,79,55,29.93,29.75,7,0,10,0.02
2013-7-27,67.3,62.7,55.7,64.8,56.1,46.1,98,80,59,29.79,29.72,7,1,9,0.01
2013-7-28,67.8,58.8,50.7,54.4,49.2,45.4,94,72,48,29.90,29.75,6,0,7,0.70
2013-7-29,74.7,63.5,53.8,58.8,54.4,48.8,92,73,53,30.06,29.89,5,0,5,0.00
2013-7-30,74.2,64.8,53.6,62.6,58.3,52.5,99,81,59,30.07,29.95,6,0,6,0.00
2013-7-31,69.1,66.4,62.4,68.2,64.8,61.0,100,95,88,29.95,29.83,2,0,4,0.04
2013-8-1,79.4,68.0,57.8,66.3,58.2,50.9,100,75,38,29.85,29.82,5,0,6,0.01
2013-8-2,84.0,66.8,56.6,70.8,63.5,54.7,100,90,59,29.84,29.70,8,0,9,1.65
2013-8-3,76.3,68.7,58.4,70.6,61.0,51.2,100,79,45,29.98,29.81,5,0,7,0.01
2013-8-4,75.4,65.4,56.5,64.9,57.9,54.4,98,78,53,30.06,29.98,4,0,6,0.00
2013-8-5,73.7,64.9,55.1,63.8,58.4,52.5,93,80,63,30.00,29.78,6,0,9,0.00
2013-8-6,79.9,70.7,62.9,70.8,66.6,61.4,98,87,69,29.80,29.73,4,0,7,0.03
2013-8-7,85.9,74.2,65.3,75.3,71.1,64.7,99,91,67,29.80,29.68,6,0,8,0.81
2013-8-8,79.2,68.8,63.1,67.5,63.3,57.7,99,84,60,29.88,29.80,4,0,6,0.00
2013-8-9,82.4,71.5,59.5,65.2,61.2,55.7,98,72,46,29.90,29.83,4,0,5,0.00
2013-8-10,80.9,71.5,61.8,69.3,61.4,52.3,99,73,44,29.99,29.90,5,0,6,0.00
2013-8-11,81.1,70.5,56.9,63.2,58.1,51.7,94,67,44,30.00,29.91,4,0,5,0.00
2013-8-12,83.4,72.9,66.1,69.5,64.7,61.6,99,77,51,29.92,29.73,9,0,10,0.66
2013-8-13,67.4,62.6,54.1,67.1,55.7,48.1,99,79,56,30.01,29.78,6,1,14,0.00
2013-8-14,65.8,53.7,48.8,53.5,50.3,48.0,97,89,60,30.08,30.01,3,0,4,0.00
2013-8-15,73.0,65.5,60.1,57.4,54.8,51.2,90,70,50,30.00,29.99,1,0,1,0.00
2013-8-16,78.5,67.3,55.9,61.2,55.9,51.7,96,70,41,30.06,29.99,3,0,6,0.00
2013-8-17,79.2,66.3,54.5,61.9,57.0,53.1,98,75,41,30.11,30.04,5,0,7,0.00
2013-8-18,82.2,68.2,55.7,65.4,59.0,54.9,99,76,43,30.08,29.98,5,0,5,0.00
2013-8-19,84.1,70.9,57.5,67.2,60.6,56.4,99,73,44,30.00,29.91,4,0,4,0.00
2013-8-20,84.9,73.1,61.2,69.1,64.4,60.3,99,76,49,30.01,29.93,6,0,6,0.00
2013-8-21,88.6,76.7,62.9,70.6,65.6,62.0,98,71,42,29.98,29.85,5,0,7,0.00
2013-8-22,75.3,70.1,64.3,70.5,67.5,63.1,99,92,73,30.00,29.86,7,0,11,0.27
2013-8-23,82.6,70.7,61.0,68.3,61.9,55.6,99,77,44,30.05,29.96,4,0,6,0.00
2013-8-24,84.0,69.3,56.6,61.9,56.9,53.0,93,68,38,30.14,30.04,4,0,5,0.00
2013-8-25,88.2,73.7,57.8,65.4,61.0,56.4,96,68,43,30.15,30.04,5,0,7,0.00
2013-8-26,88.2,77.0,66.8,73.1,66.7,59.8,92,71,55,30.05,29.89,9,0,9,0.00
2013-8-27,92.7,82.0,73.0,75.2,70.7,66.4,89,70,43,29.89,29.72,8,1,13,0.00
2013-8-28,81.1,75.1,69.9,73.3,69.0,63.9,100,83,58,29.90,29.71,5,1,9,0.00
2013-8-29,87.2,74.9,67.6,74.5,69.0,61.7,100,84,44,29.94,29.85,4,0,4,1.26
2013-8-30,93.6,78.0,66.4,73.0,69.2,65.8,99,78,48,29.85,29.64,8,0,10,0.06
2013-8-31,74.2,70.6,68.4,73.6,69.4,67.1,100,96,91,29.75,29.65,2,0,4,0.46
2013-9-1,82.8,74.1,66.8,72.9,69.8,66.8,100,88,65,29.68,29.61,5,0,6,0.00
2013-9-2,76.5,69.8,60.1,68.8,63.7,56.5,96,82,61,29.84,29.63,6,1,7,0.00
2013-9-3,73.7,63.7,56.2,60.4,57.0,53.5,96,80,56,29.95,29.83,4,0,4,0.00
2013-9-4,82.2,66.9,53.1,62.3,56.5,52.7,100,73,37,30.00,29.92,7,0,7,0.00
2013-9-5,77.9,66.6,56.6,62.6,56.6,49.4,96,73,47,30.11,29.98,5,0,7,0.00
2013-9-6,83.4,67.9,52.6,64.8,56.0,47.8,86,68,43,30.11,29.91,4,0,6,0.00
2013-9-7,88.2,72.9,61.2,69.0,63.6,59.6,98,75,39,29.91,29.78,5,0,6,0.00
2013-9-8,79.6,71.6,67.1,70.1,67.1,64.4,96,86,69,29.89,29.80,6,0,7,0.00
2013-9-9,94.0,78.9,64.8,73.9,68.6,63.2,96,73,47,29.85,29.70,7,0,10,0.00
2013-9-10,95.9,83.8,73.3,70.3,65.8,59.6,87,58,31,29.89,29.76,10,1,10,0.00
2013-9-11,94.5,78.1,69.8,71.6,69.0,62.5,96,77,35,29.91,29.82,8,0,9,0.08
2013-9-12,82.8,71.4,62.6,69.7,61.5,51.2,97,73,34,29.91,29.76,12,1,13,0.01
2013-9-13,63.7,57.4,46.4,54.7,47.9,43.2,94,72,51,30.03,29.91,11,1,13,0.00
2013-9-14,71.3,56.0,41.6,47.2,41.6,36.8,99,64,30,30.07,29.92,5,0,5,0.00
2013-9-15,66.6,57.0,48.0,59.6,50.8,40.0,99,81,59,30.01,29.86,4,0,5,0.10
2013-9-16,64.5,57.5,50.5,55.3,51.9,47.1,99,83,57,30.20,30.01,7,1,9,0.01
2013-9-17,72.0,57.3,44.9,53.0,48.9,43.8,97,76,45,30.23,30.00,6,0,7,0.00
2013-9-18,80.9,66.0,55.9,68.0,58.0,49.2,99,77,51,30.00,29.83,7,0,12,1.73
2013-9-19,74.9,69.0,64.7,71.8,68.0,64.4,100,97,85,29.87,29.72,10,0,10,0.51
2013-9-20,75.1,68.8,58.9,71.8,64.3,52.5,99,86,71,29.72,29.64,6,0,6,0.09
2013-9-21,64.2,58.6,48.8,55.6,50.5,45.0,96,76,53,29.81,29.65,9,1,10,0.00
2013-9-22,64.5,54.6,48.2,50.5,47.7,44.5,97,79,53,29.94,29.81,6,0,7,0.00
2013-9-23,71.8,55.2,41.9,50.8,45.9,40.8,96,74,41,30.00,29.92,6,0,7,0.00
2013-9-24,72.8,56.8,43.6,53.7,47.5,42.5,98,74,42,29.97,29.80,5,0,6,0.00
2013-9-25,75.3,59.2,49.2,56.7,51.6,47.3,97,78,43,29.84,29.78,5,0,7,0.00
2013-9-26,78.1,59.9,48.6,59.9,52.2,48.3,100,80,36,29.97,29.83,7,0,7,0.09
2013-9-27,81.8,62.3,46.1,54.2,47.7,38.8,93,65,22,30.06,29.97,6,0,7,0.00
2013-9-28,82.6,66.3,49.8,59.2,54.2,48.7,98,69,40,29.99,29.80,8,1,11,0.00
2013-9-29,71.8,59.9,47.7,62.8,53.8,46.6,98,81,57,29.90,29.79,6,1,11,0.25
2013-9-30,75.3,58.7,44.8,57.4,50.0,43.2,100,77,34,29.90,29.78,4,0,6,0.00
2013-10-1,79.2,67.6,58.6,64.9,61.9,56.0,100,84,57,29.87,29.79,8,0,10,0.00
2013-10-2,82.4,69.5,59.6,65.5,59.5,51.5,98,74,41,29.95,29.84,3,0,4,0.00
2013-10-3,76.3,66.9,59.5,70.5,65.6,56.6,100,96,77,29.87,29.74,7,0,9,0.80
2013-10-4,83.8,71.3,63.4,72.0,67.2,62.5,99,88,60,29.87,29.80,4,0,6,0.01
2013-10-5,80.5,70.1,65.6,72.2,67.8,64.7,99,93,71,29.84,29.66,6,0,11,0.28
2013-10-6,66.3,56.0,44.3,66.3,50.5,40.3,100,84,49,29.67,29.56,7,0,11,0.39
2013-10-7,65.8,51.1,43.8,49.8,44.2,39.8,94,79,43,29.99,29.64,6,0,12,0.00
2013-10-8,77.0,57.5,42.6,54.3,46.8,41.5,98,72,33,30.09,29.98,4,0,6,0.00
2013-10-9,73.3,56.6,42.5,51.1,45.5,40.7,97,70,32,30.14,30.02,8,0,8,0.00
2013-10-10,76.5,58.1,43.5,54.3,48.7,42.4,98,75,37,30.06,29.93,4,0,5,0.00
2013-10-11,76.8,58.9,44.6,52.5,47.3,43.5,98,71,32,29.99,29.87,6,0,6,0.00
2013-10-12,76.8,61.0,48.3,63.9,54.2,46.9,98,81,51,30.03,29.86,9,0,10,0.02
2013-10-13,62.1,51.4,41.1,50.9,43.7,39.8,98,77,48,30.27,30.03,7,1,10,0.00
2013-10-14,66.6,51.5,39.9,48.3,43.1,39.1,99,76,41,30.28,30.03,5,0,6,0.00
2013-10-15,63.1,56.1,47.0,62.1,53.8,44.5,99,92,81,30.03,29.68,9,0,10,0.15
2013-10-16,54.1,49.4,43.5,48.1,45.0,41.6,94,85,76,29.83,29.74,6,0,8,0.00
2013-10-17,52.5,47.3,38.5,48.1,44.2,37.2,98,89,68,29.81,29.71,6,0,8,0.12
2013-10-18,55.1,44.3,37.2,46.2,40.0,36.3,99,85,68,29.86,29.75,8,0,11,0.00
2013-10-19,53.8,46.5,41.3,41.7,37.7,30.2,96,73,41,29.82,29.68,11,1,11,0.02
2013-10-20,64.5,51.5,38.9,44.2,40.3,36.3,92,68,44,29.78,29.63,7,1,13,0.01
2013-10-21,55.0,46.3,32.5,47.7,37.3,24.9,95,71,49,29.87,29.69,6,0,9,0.04
2013-10-22,44.8,35.4,29.1,35.7,29.8,24.5,96,81,45,29.90,29.79,5,0,6,0.11
2013-10-23,44.9,38.3,31.8,37.8,30.6,23.2,98,76,45,29.90,29.75,11,1,12,0.00
2013-10-24,44.2,38.2,34.9,31.3,26.6,20.7,84,64,41,30.17,29.89,12,1,13,0.00
2013-10-25,49.6,39.4,28.7,30.2,26.5,23.9,83,61,40,30.30,30.00,10,1,10,0.00
2013-10-26,54.5,44.6,34.9,37.6,31.0,25.6,81,59,49,29.99,29.73,10,2,14,0.00
2013-10-27,55.7,42.2,29.7,32.8,29.7,27.4,94,64,35,29.97,29.87,7,0,10,0.00
2013-10-28,60.9,44.0,29.7,43.9,35.9,27.4,96,75,36,30.21,29.95,7,0,7,0.00
2013-10-29,55.3,44.2,34.6,43.6,37.8,33.0,94,80,52,30.25,30.04,5,0,6,0.00
2013-10-30,63.1,52.2,39.8,63.1,50.3,38.5,100,93,85,30.04,29.66,7,0,12,1.26
2013-10-31,63.2,58.3,47.6,63.2,57.9,46.5,100,99,95,29.66,29.09,12,2,13,0.97
2013-11-1,49.9,46.3,44.3,46.5,42.2,39.2,98,86,67,29.62,29.25,11,1,16,0.08
2013-11-2,46.1,42.9,39.9,44.4,40.7,34.3,100,92,65,30.01,29.61,9,1,10,0.11
2013-11-3,51.3,42.8,37.3,44.1,38.6,35.3,99,86,56,30.21,30.00,6,0,9,0.16
2013-11-4,54.7,47.4,39.5,43.1,39.0,35.9,89,73,56,30.20,30.05,12,2,14,0.00
2013-11-5,55.4,52.2,49.4,50.7,46.0,42.8,96,80,72,30.18,29.89,11,1,11,0.00
2013-11-6,56.5,49.4,38.3,54.0,46.4,28.6,99,90,67,30.02,29.69,12,2,15,0.83
2013-11-7,47.1,37.6,30.3,32.3,28.6,24.9,91,71,48,30.14,30.02,9,1,12,0.00
2013-11-8,47.4,38.9,28.1,32.6,29.9,25.4,96,72,48,30.23,29.92,9,1,13,0.00
2013-11-9,59.9,50.0,43.2,41.0,35.9,26.8,68,59,45,29.96,29.77,13,3,18,0.00
2013-11-10,47.4,40.5,34.6,31.8,28.4,23.6,78,62,47,30.21,29.96,13,2,13,0.00
2013-11-11,46.0,38.4,29.3,39.8,31.5,23.0,96,77,62,30.32,29.98,11,2,12,0.23
2013-11-12,32.2,27.7,21.8,27.7,21.5,15.8,93,78,54,30.55,30.32,7,1,10,0.05
2013-11-13,37.9,28.1,18.4,22.5,18.0,14.3,86,67,44,30.50,30.10,15,2,18,0.05
2013-11-14,50.5,39.1,30.1,28.2,23.1,18.6,65,53,39,30.10,29.87,17,3,18,0.05
2013-11-15,48.3,42.5,37.5,35.4,29.9,24.8,78,61,49,29.92,29.85,10,2,13,0.00
2013-11-16,59.6,50.3,38.5,57.9,47.5,32.7,96,90,79,29.87,29.51,17,2,17,0.11
2013-11-17,65.3,56.5,42.1,62.6,52.2,35.4,99,86,65,29.59,29.10,23,4,29,0.32
2013-11-18,44.1,39.1,34.0,35.4,29.3,23.5,84,68,53,30.12,29.59,14,3,16,0.00
2013-11-19,44.3,35.8,29.0,30.3,26.7,23.6,84,70,53,30.25,30.12,6,1,7,0.00
2013-11-20,44.6,36.8,27.9,38.0,29.2,24.0,94,75,53,30.20,30.00,13,1,13,0.10
2013-11-21,48.6,44.8,39.6,45.8,42.6,38.0,100,92,79,30.08,30.02,7,0,10,0.43
2013-11-22,45.7,36.5,27.6,45.4,33.6,24.0,99,89,75,30.35,30.05,14,2,15,0.02
2013-11-23,27.8,23.6,19.9,24.2,13.7,7.3,87,66,52,30.54,30.29,19,4,19,0.00
2013-11-24,27.2,20.4,14.4,10.4,5.3,-4.8,66,53,26,30.61,30.31,7,1,10,0.00
2013-11-25,31.3,26.5,18.3,26.6,17.2,7.1,93,69,50,30.31,30.00,16,3,19,0.00
2013-11-26,34.7,29.2,23.6,29.2,23.5,16.8,88,79,59,30.01,29.88,14,2,18,0.01
2013-11-27,26.1,22.9,18.4,20.0,15.7,9.8,91,74,55,30.16,29.96,13,3,13,0.00
2013-11-28,34.9,26.9,21.0,19.2,14.7,10.9,69,60,47,30.36,30.09,11,1,15,0.01
2013-11-29,35.8,29.1,21.4,21.8,19.1,14.2,77,66,53,30.53,30.32,7,1,7,0.00
2013-11-30,49.8,37.7,27.8,30.2,26.1,21.2,81,64,44,30.31,29.95,11,1,14,0.00
2013-12-1,44.6,34.8,27.2,37.7,30.7,24.7,95,85,70,29.98,29.87,6,0,6,0.00
2013-12-2,41.2,34.6,27.6,33.8,29.7,26.4,97,83,59,29.86,29.67,6,1,7,0.06
2013-12-3,49.6,42.8,34.6,48.2,42.0,33.8,99,97,94,29.67,29.59,7,1,10,0.00
2013-12-4,57.5,50.7,44.8,56.7,50.1,42.8,100,98,87,29.65,29.42,11,2,16,0.01
2013-12-5,46.2,29.2,23.3,42.5,22.1,13.2,89,75,63,30.14,29.56,11,2,14,0.00
2013-12-6,24.2,22.0,16.7,17.7,14.2,8.3,79,71,67,30.39,30.11,7,2,9,0.00
2013-12-7,19.7,14.7,10.4,12.5,8.5,6.6,88,76,60,30.57,30.40,6,1,7,0.00
2013-12-8,25.4,20.8,11.1,24.2,16.6,8.2,95,84,70,30.49,29.84,10,1,10,0.00
2013-12-9,25.6,18.7,5.0,24.4,12.4,-4.5,95,76,59,30.15,29.83,12,2,13,0.00
2013-12-10,23.2,12.5,-0.6,10.8,2.3,-6.9,77,63,54,30.20,29.97,16,2,18,0.00
2013-12-11,21.4,14.5,1.5,16.2,7.1,-7.5,89,72,54,30.47,30.18,10,1,11,0.00
2013-12-12,21.1,9.2,-5.0,11.1,0.3,-11.3,81,67,51,30.47,30.13,11,1,14,0.00
2013-12-13,27.3,21.5,12.4,25.5,15.0,7.2,95,76,63,30.13,30.00,3,0,4,0.01
2013-12-14,28.1,26.0,24.4,25.9,24.1,21.7,96,92,87,30.00,29.75,6,1,6,0.00
2013-12-15,26.3,14.8,8.8,23.0,8.9,3.0,88,77,68,30.02,29.82,11,2,11,0.00
2013-12-16,20.3,15.9,7.4,17.7,11.2,3.8,93,82,71,30.07,29.93,4,0,6,0.00
2013-12-17,30.6,22.8,16.5,24.9,19.0,14.6,94,85,68,29.98,29.85,11,2,12,0.00
2013-12-18,37.2,24.6,13.6,29.0,15.6,9.1,84,68,55,30.09,29.76,13,2,16,0.00
2013-12-19,42.3,37.6,34.0,36.5,33.9,28.8,97,86,72,29.84,29.68,10,1,15,0.33
2013-12-20,42.1,37.3,33.7,41.9,37.3,33.7,100,100,96,29.68,29.59,4,0,5,0.23
2013-12-21,35.3,33.6,32.4,35.3,33.6,32.4,100,100,100,29.72,29.39,6,0,7,0.49
2013-12-22,34.4,31.3,25.8,34.4,31.1,23.5,100,99,91,29.99,29.43,7,1,10,0.08
2013-12-23,25.8,16.9,0.7,23.5,11.9,-6.5,91,80,62,30.36,29.99,11,2,16,0.00
2013-12-24,17.8,8.9,-0.2,11.6,2.3,-6.8,82,74,66,30.49,30.31,7,1,10,0.00
2013-12-25,26.7,23.2,17.5,25.5,19.0,11.1,95,84,69,30.30,29.99,11,2,13,0.00
2013-12-26,34.0,25.5,14.4,27.4,19.6,9.6,91,78,68,30.21,29.99,11,2,12,0.01
2013-12-27,42.6,35.2,24.2,32.4,29.2,22.2,95,79,64,30.20,30.00,12,2,15,0.09
2013-12-28,49.4,40.6,33.8,36.4,32.4,29.7,88,73,57,30.00,29.75,12,2,14,0.00
2013-12-29,37.2,29.7,16.5,32.6,25.6,12.2,94,84,74,30.04,29.65,12,2,14,0.01
2013-12-30,16.5,12.7,5.8,12.2,6.7,1.8,86,76,68,30.23,30.04,6,1,8,0.00
2013-12-31,16.1,10.9,3.9,13.4,6.1,-0.4,89,81,65,30.29,30.08,10,1,11,0.00
2014-1-1,18.6,16.3,12.9,14.3,12.8,9.2,90,86,79,30.19,30.04,6,0,9,0.00
2014-1-2,18.1,13.8,9.3,12.4,8.9,5.7,87,81,60,30.30,29.98,10,1,14,0.00